CheckWX is a tool to help pilots better visualize weather data.  It is not intended as a substitute for an official pre-flight weather briefing.

12:34:12 UTC

KLBT TAF
Lumberton Regional Airport
Lumberton, North Carolina, USA
KLBT 261120Z 2612/2712 VRB03KT P6SM FEW250 FM262300 03005KT P6SM FEW070 FEW250 FM270500 VRB03KT P6SM SCT250 AMD NOT SKED

Jun-26@
12:00 UTC

Jun-26 @ 12:00 UTC

Jun-26@
23:00 UTC

Jun-26 @ 23:00 UTC

KLBT 261120Z 2612/2712 VRB03KT P6SM FEW250
Wind
  • Variable at 3 KTS
Cloud Levels
  • Few at 25,000' AGL

Jun-26@
23:00 UTC

Jun-26 @ 23:00 UTC

Jun-27@
05:00 UTC

Jun-27 @ 05:00 UTC

FM262300 03005KT P6SM FEW070 FEW250

From

From Standard forecast or significant change

Wind
  • 030° at 5 KTS
Cloud Levels
  • Few at 7,000' AGL
  • Few at 25,000' AGL

Jun-27@
05:00 UTC

Jun-27 @ 05:00 UTC

Jun-27@
12:00 UTC

Jun-27 @ 12:00 UTC

FM270500 VRB03KT P6SM SCT250 AMD NOT SKED

From

From Standard forecast or significant change

Wind
  • Variable at 3 KTS
Cloud Levels
  • Scattered at 25,000' AGL